sensor_id;sensor_type;location;lat;lon;timestamp;P1;durP1;ratioP1;P2;durP2;ratioP2
60464;SDS011;46314;52.392;9.758;2022-11-20T00:01:25;25.70;;;15.43;;
60464;SDS011;46314;52.392;9.758;2022-11-20T00:03:53;26.35;;;16.25;;
60464;SDS011;46314;52.392;9.758;2022-11-20T00:06:21;28.40;;;17.80;;
60464;SDS011;46314;52.392;9.758;2022-11-20T00:08:48;26.50;;;16.60;;
60464;SDS011;46314;52.392;9.758;2022-11-20T00:11:17;24.98;;;16.98;;
60464;SDS011;46314;52.392;9.758;2022-11-20T00:13:45;22.50;;;15.23;;
60464;SDS011;46314;52.392;9.758;2022-11-20T00:16:14;22.58;;;14.25;;
60464;SDS011;46314;52.392;9.758;2022-11-20T00:18:42;22.27;;;14.85;;
60464;SDS011;46314;52.392;9.758;2022-11-20T00:21:10;20.17;;;13.88;;
60464;SDS011;46314;52.392;9.758;2022-11-20T00:23:38;19.02;;;13.25;;
60464;SDS011;46314;52.392;9.758;2022-11-20T00:26:05;20.48;;;13.02;;
60464;SDS011;46314;52.392;9.758;2022-11-20T00:28:34;22.42;;;14.32;;
60464;SDS011;46314;52.392;9.758;2022-11-20T00:31:01;19.27;;;13.50;;
60464;SDS011;46314;52.392;9.758;2022-11-20T00:33:28;19.13;;;13.60;;
60464;SDS011;46314;52.392;9.758;2022-11-20T00:35:58;18.65;;;13.07;;
60464;SDS011;46314;52.392;9.758;2022-11-20T00:38:25;20.88;;;13.25;;
60464;SDS011;46314;52.392;9.758;2022-11-20T00:40:54;19.02;;;13.27;;
60464;SDS011;46314;52.392;9.758;2022-11-20T00:43:21;20.58;;;13.80;;
60464;SDS011;46314;52.392;9.758;2022-11-20T00:45:49;19.73;;;13.15;;
60464;SDS011;46314;52.392;9.758;2022-11-20T00:48:16;17.10;;;12.23;;
60464;SDS011;46314;52.392;9.758;2022-11-20T00:50:42;18.02;;;12.38;;
60464;SDS011;46314;52.392;9.758;2022-11-20T00:53:09;18.02;;;12.35;;
60464;SDS011;46314;52.392;9.758;2022-11-20T00:55:35;17.27;;;12.23;;
60464;SDS011;46314;52.392;9.758;2022-11-20T00:58:01;19.15;;;12.57;;
60464;SDS011;46314;52.392;9.758;2022-11-20T01:00:30;22.58;;;14.95;;
60464;SDS011;46314;52.392;9.758;2022-11-20T01:02:57;18.80;;;13.20;;
60464;SDS011;46314;52.392;9.758;2022-11-20T01:05:24;18.20;;;13.57;;
60464;SDS011;46314;52.392;9.758;2022-11-20T01:07:50;20.63;;;14.00;;
60464;SDS011;46314;52.392;9.758;2022-11-20T01:10:17;19.88;;;13.50;;
60464;SDS011;46314;52.392;9.758;2022-11-20T01:12:43;17.30;;;12.13;;
60464;SDS011;46314;52.392;9.758;2022-11-20T01:15:10;19.00;;;13.40;;
60464;SDS011;46314;52.392;9.758;2022-11-20T01:17:36;18.70;;;12.55;;
60464;SDS011;46314;52.392;9.758;2022-11-20T01:20:04;20.42;;;13.23;;
60464;SDS011;46314;52.392;9.758;2022-11-20T01:22:31;18.95;;;12.73;;
60464;SDS011;46314;52.392;9.758;2022-11-20T01:24:58;17.92;;;12.40;;
60464;SDS011;46314;52.392;9.758;2022-11-20T01:27:25;19.73;;;12.77;;
60464;SDS011;46314;52.392;9.758;2022-11-20T01:29:51;18.25;;;11.90;;
60464;SDS011;46314;52.392;9.758;2022-11-20T01:32:25;19.90;;;12.75;;
60464;SDS011;46314;52.392;9.758;2022-11-20T01:34:51;19.25;;;13.18;;
60464;SDS011;46314;52.392;9.758;2022-11-20T01:37:19;17.80;;;12.75;;
60464;SDS011;46314;52.392;9.758;2022-11-20T01:39:45;18.75;;;13.68;;
60464;SDS011;46314;52.392;9.758;2022-11-20T01:42:12;18.98;;;12.68;;
60464;SDS011;46314;52.392;9.758;2022-11-20T01:44:49;18.58;;;12.00;;
60464;SDS011;46314;52.392;9.758;2022-11-20T01:47:20;19.65;;;11.95;;
60464;SDS011;46314;52.392;9.758;2022-11-20T01:49:50;21.23;;;12.93;;
60464;SDS011;46314;52.392;9.758;2022-11-20T01:52:24;15.75;;;11.48;;
60464;SDS011;46314;52.392;9.758;2022-11-20T01:54:57;17.30;;;13.93;;
60464;SDS011;46314;52.392;9.758;2022-11-20T01:57:27;17.85;;;13.00;;
60464;SDS011;46314;52.392;9.758;2022-11-20T01:59:57;17.27;;;11.40;;
60464;SDS011;46314;52.392;9.758;2022-11-20T02:02:27;17.63;;;12.30;;
60464;SDS011;46314;52.392;9.758;2022-11-20T02:04:54;18.30;;;12.48;;
60464;SDS011;46314;52.392;9.758;2022-11-20T02:07:28;19.38;;;13.10;;
60464;SDS011;46314;52.392;9.758;2022-11-20T02:09:54;17.58;;;11.93;;
60464;SDS011;46314;52.392;9.758;2022-11-20T02:12:24;21.63;;;12.68;;
60464;SDS011;46314;52.392;9.758;2022-11-20T02:14:50;18.75;;;11.55;;
60464;SDS011;46314;52.392;9.758;2022-11-20T02:17:17;22.67;;;13.50;;
60464;SDS011;46314;52.392;9.758;2022-11-20T02:19:43;21.20;;;13.65;;
60464;SDS011;46314;52.392;9.758;2022-11-20T02:22:10;19.17;;;12.18;;
60464;SDS011;46314;52.392;9.758;2022-11-20T02:24:45;18.55;;;13.30;;
60464;SDS011;46314;52.392;9.758;2022-11-20T02:27:15;15.52;;;12.13;;
60464;SDS011;46314;52.392;9.758;2022-11-20T02:29:44;18.15;;;12.45;;
60464;SDS011;46314;52.392;9.758;2022-11-20T02:34:46;16.98;;;10.93;;
60464;SDS011;46314;52.392;9.758;2022-11-20T02:37:13;18.50;;;11.77;;
60464;SDS011;46314;52.392;9.758;2022-11-20T02:39:40;14.60;;;10.65;;
60464;SDS011;46314;52.392;9.758;2022-11-20T02:42:09;15.93;;;10.75;;
60464;SDS011;46314;52.392;9.758;2022-11-20T02:44:35;17.73;;;12.52;;
60464;SDS011;46314;52.392;9.758;2022-11-20T02:47:02;14.80;;;10.68;;
60464;SDS011;46314;52.392;9.758;2022-11-20T02:49:29;17.88;;;12.23;;
60464;SDS011;46314;52.392;9.758;2022-11-20T02:51:57;15.50;;;11.98;;
60464;SDS011;46314;52.392;9.758;2022-11-20T02:54:23;18.27;;;11.43;;
60464;SDS011;46314;52.392;9.758;2022-11-20T02:56:50;20.08;;;13.27;;
60464;SDS011;46314;52.392;9.758;2022-11-20T02:59:18;19.00;;;14.30;;
60464;SDS011;46314;52.392;9.758;2022-11-20T03:01:45;25.58;;;16.95;;
60464;SDS011;46314;52.392;9.758;2022-11-20T03:04:11;30.95;;;18.38;;
60464;SDS011;46314;52.392;9.758;2022-11-20T03:06:38;28.05;;;16.73;;
60464;SDS011;46314;52.392;9.758;2022-11-20T03:09:04;26.67;;;17.30;;
60464;SDS011;46314;52.392;9.758;2022-11-20T03:11:31;29.70;;;16.08;;
60464;SDS011;46314;52.392;9.758;2022-11-20T03:13:57;24.95;;;16.15;;
60464;SDS011;46314;52.392;9.758;2022-11-20T03:16:30;26.50;;;16.67;;
60464;SDS011;46314;52.392;9.758;2022-11-20T03:18:57;22.58;;;15.77;;
60464;SDS011;46314;52.392;9.758;2022-11-20T03:21:24;21.75;;;14.68;;
60464;SDS011;46314;52.392;9.758;2022-11-20T03:23:50;22.38;;;14.63;;
60464;SDS011;46314;52.392;9.758;2022-11-20T03:26:18;23.08;;;13.75;;
60464;SDS011;46314;52.392;9.758;2022-11-20T03:28:46;21.77;;;12.90;;
60464;SDS011;46314;52.392;9.758;2022-11-20T03:31:14;17.40;;;12.27;;
60464;SDS011;46314;52.392;9.758;2022-11-20T03:33:43;17.13;;;12.88;;
60464;SDS011;46314;52.392;9.758;2022-11-20T03:36:11;17.80;;;11.80;;
60464;SDS011;46314;52.392;9.758;2022-11-20T03:38:38;16.40;;;12.25;;
60464;SDS011;46314;52.392;9.758;2022-11-20T03:41:07;17.55;;;12.25;;
60464;SDS011;46314;52.392;9.758;2022-11-20T03:43:35;18.85;;;11.85;;
60464;SDS011;46314;52.392;9.758;2022-11-20T03:46:02;17.08;;;13.35;;
60464;SDS011;46314;52.392;9.758;2022-11-20T03:48:29;18.73;;;13.13;;
60464;SDS011;46314;52.392;9.758;2022-11-20T03:51:07;20.30;;;13.90;;
60464;SDS011;46314;52.392;9.758;2022-11-20T03:53:35;18.45;;;11.65;;
60464;SDS011;46314;52.392;9.758;2022-11-20T03:56:01;21.35;;;12.88;;
60464;SDS011;46314;52.392;9.758;2022-11-20T03:58:28;19.02;;;12.68;;
60464;SDS011;46314;52.392;9.758;2022-11-20T04:00:55;17.77;;;12.00;;
60464;SDS011;46314;52.392;9.758;2022-11-20T04:03:21;17.95;;;12.93;;
60464;SDS011;46314;52.392;9.758;2022-11-20T04:05:48;19.05;;;11.75;;
60464;SDS011;46314;52.392;9.758;2022-11-20T04:08:15;20.92;;;12.48;;
60464;SDS011;46314;52.392;9.758;2022-11-20T04:10:42;18.83;;;11.68;;
60464;SDS011;46314;52.392;9.758;2022-11-20T04:13:08;19.05;;;13.23;;
60464;SDS011;46314;52.392;9.758;2022-11-20T04:15:35;16.15;;;11.85;;
60464;SDS011;46314;52.392;9.758;2022-11-20T04:18:03;17.95;;;12.77;;
60464;SDS011;46314;52.392;9.758;2022-11-20T04:20:30;19.92;;;12.38;;
60464;SDS011;46314;52.392;9.758;2022-11-20T04:22:56;16.02;;;12.13;;
60464;SDS011;46314;52.392;9.758;2022-11-20T04:25:24;17.35;;;12.23;;
60464;SDS011;46314;52.392;9.758;2022-11-20T04:27:50;17.58;;;11.70;;
60464;SDS011;46314;52.392;9.758;2022-11-20T04:30:17;14.98;;;11.38;;
60464;SDS011;46314;52.392;9.758;2022-11-20T04:32:43;16.00;;;12.00;;
60464;SDS011;46314;52.392;9.758;2022-11-20T04:35:10;18.00;;;11.82;;
60464;SDS011;46314;52.392;9.758;2022-11-20T04:37:36;16.50;;;11.27;;
60464;SDS011;46314;52.392;9.758;2022-11-20T04:40:03;17.13;;;11.07;;
60464;SDS011;46314;52.392;9.758;2022-11-20T04:42:31;17.05;;;10.63;;
60464;SDS011;46314;52.392;9.758;2022-11-20T04:44:58;16.45;;;11.60;;
60464;SDS011;46314;52.392;9.758;2022-11-20T04:47:24;18.85;;;12.52;;
60464;SDS011;46314;52.392;9.758;2022-11-20T04:49:51;17.05;;;12.02;;
60464;SDS011;46314;52.392;9.758;2022-11-20T04:52:17;19.27;;;12.38;;
60464;SDS011;46314;52.392;9.758;2022-11-20T04:54:44;16.75;;;10.98;;
60464;SDS011;46314;52.392;9.758;2022-11-20T04:57:12;17.85;;;12.13;;
60464;SDS011;46314;52.392;9.758;2022-11-20T04:59:41;16.08;;;11.52;;
60464;SDS011;46314;52.392;9.758;2022-11-20T05:02:08;17.75;;;11.85;;
60464;SDS011;46314;52.392;9.758;2022-11-20T05:04:35;15.88;;;11.88;;
60464;SDS011;46314;52.392;9.758;2022-11-20T05:07:01;16.85;;;11.18;;
60464;SDS011;46314;52.392;9.758;2022-11-20T05:09:28;18.20;;;12.43;;
60464;SDS011;46314;52.392;9.758;2022-11-20T05:11:54;16.70;;;11.63;;
60464;SDS011;46314;52.392;9.758;2022-11-20T05:14:21;15.98;;;11.27;;
60464;SDS011;46314;52.392;9.758;2022-11-20T05:16:49;16.75;;;10.90;;
60464;SDS011;46314;52.392;9.758;2022-11-20T05:19:15;16.08;;;11.27;;
60464;SDS011;46314;52.392;9.758;2022-11-20T05:21:42;17.10;;;11.48;;
60464;SDS011;46314;52.392;9.758;2022-11-20T05:24:08;15.25;;;11.00;;
60464;SDS011;46314;52.392;9.758;2022-11-20T05:26:35;17.75;;;11.02;;
60464;SDS011;46314;52.392;9.758;2022-11-20T05:29:01;19.23;;;11.27;;
60464;SDS011;46314;52.392;9.758;2022-11-20T05:31:28;15.65;;;11.38;;
60464;SDS011;46314;52.392;9.758;2022-11-20T05:33:56;15.85;;;10.95;;
60464;SDS011;46314;52.392;9.758;2022-11-20T05:36:23;14.90;;;10.50;;
60464;SDS011;46314;52.392;9.758;2022-11-20T05:38:50;15.05;;;10.68;;
60464;SDS011;46314;52.392;9.758;2022-11-20T05:41:19;14.50;;;10.73;;
60464;SDS011;46314;52.392;9.758;2022-11-20T05:43:47;15.18;;;11.00;;
60464;SDS011;46314;52.392;9.758;2022-11-20T05:46:14;14.75;;;10.57;;
60464;SDS011;46314;52.392;9.758;2022-11-20T05:48:43;17.90;;;11.60;;
60464;SDS011;46314;52.392;9.758;2022-11-20T05:51:12;15.23;;;10.25;;
60464;SDS011;46314;52.392;9.758;2022-11-20T05:53:40;14.32;;;10.77;;
60464;SDS011;46314;52.392;9.758;2022-11-20T05:56:14;16.27;;;11.63;;
60464;SDS011;46314;52.392;9.758;2022-11-20T05:58:42;17.90;;;10.88;;
60464;SDS011;46314;52.392;9.758;2022-11-20T06:01:10;15.82;;;10.80;;
60464;SDS011;46314;52.392;9.758;2022-11-20T06:03:38;16.05;;;10.65;;
60464;SDS011;46314;52.392;9.758;2022-11-20T06:06:06;15.48;;;11.23;;
60464;SDS011;46314;52.392;9.758;2022-11-20T06:08:34;13.85;;;10.48;;
60464;SDS011;46314;52.392;9.758;2022-11-20T06:11:02;15.23;;;10.52;;
60464;SDS011;46314;52.392;9.758;2022-11-20T06:13:30;13.82;;;9.23;;
60464;SDS011;46314;52.392;9.758;2022-11-20T06:15:56;14.02;;;10.27;;
60464;SDS011;46314;52.392;9.758;2022-11-20T06:18:23;14.80;;;10.48;;
60464;SDS011;46314;52.392;9.758;2022-11-20T06:20:58;15.40;;;9.68;;
60464;SDS011;46314;52.392;9.758;2022-11-20T06:23:27;14.15;;;9.68;;
60464;SDS011;46314;52.392;9.758;2022-11-20T06:25:55;13.75;;;9.55;;
60464;SDS011;46314;52.392;9.758;2022-11-20T06:28:22;14.93;;;9.82;;
60464;SDS011;46314;52.392;9.758;2022-11-20T06:30:49;13.10;;;8.60;;
60464;SDS011;46314;52.392;9.758;2022-11-20T06:33:15;11.85;;;8.68;;
60464;SDS011;46314;52.392;9.758;2022-11-20T06:35:42;15.05;;;9.60;;
60464;SDS011;46314;52.392;9.758;2022-11-20T06:38:08;13.02;;;9.45;;
60464;SDS011;46314;52.392;9.758;2022-11-20T06:40:35;15.23;;;9.85;;
60464;SDS011;46314;52.392;9.758;2022-11-20T06:43:02;16.02;;;9.45;;
60464;SDS011;46314;52.392;9.758;2022-11-20T06:45:29;13.07;;;9.40;;
60464;SDS011;46314;52.392;9.758;2022-11-20T06:47:56;11.57;;;9.25;;
60464;SDS011;46314;52.392;9.758;2022-11-20T06:50:23;15.00;;;9.68;;
60464;SDS011;46314;52.392;9.758;2022-11-20T06:52:50;14.25;;;9.88;;
60464;SDS011;46314;52.392;9.758;2022-11-20T06:55:16;14.05;;;10.05;;
60464;SDS011;46314;52.392;9.758;2022-11-20T06:57:43;13.60;;;9.75;;
60464;SDS011;46314;52.392;9.758;2022-11-20T07:00:11;17.15;;;11.27;;
60464;SDS011;46314;52.392;9.758;2022-11-20T07:02:38;13.45;;;9.98;;
60464;SDS011;46314;52.392;9.758;2022-11-20T07:05:05;14.93;;;11.52;;
60464;SDS011;46314;52.392;9.758;2022-11-20T07:07:32;22.00;;;11.77;;
60464;SDS011;46314;52.392;9.758;2022-11-20T07:09:58;16.98;;;11.00;;
60464;SDS011;46314;52.392;9.758;2022-11-20T07:12:25;17.25;;;11.30;;
60464;SDS011;46314;52.392;9.758;2022-11-20T07:14:51;18.02;;;10.82;;
60464;SDS011;46314;52.392;9.758;2022-11-20T07:17:19;16.98;;;10.10;;
60464;SDS011;46314;52.392;9.758;2022-11-20T07:19:45;16.10;;;10.45;;
60464;SDS011;46314;52.392;9.758;2022-11-20T07:22:12;13.82;;;9.65;;
60464;SDS011;46314;52.392;9.758;2022-11-20T07:24:38;14.32;;;10.65;;
60464;SDS011;46314;52.392;9.758;2022-11-20T07:27:11;13.43;;;9.65;;
60464;SDS011;46314;52.392;9.758;2022-11-20T07:29:37;15.38;;;9.73;;
60464;SDS011;46314;52.392;9.758;2022-11-20T07:32:04;13.45;;;9.73;;
60464;SDS011;46314;52.392;9.758;2022-11-20T07:34:31;15.02;;;9.65;;
60464;SDS011;46314;52.392;9.758;2022-11-20T07:36:58;13.05;;;10.13;;
60464;SDS011;46314;52.392;9.758;2022-11-20T07:39:24;14.70;;;9.82;;
60464;SDS011;46314;52.392;9.758;2022-11-20T07:41:51;13.93;;;9.45;;
60464;SDS011;46314;52.392;9.758;2022-11-20T07:44:17;15.40;;;9.80;;
60464;SDS011;46314;52.392;9.758;2022-11-20T07:46:43;12.52;;;9.05;;
60464;SDS011;46314;52.392;9.758;2022-11-20T07:49:10;17.17;;;9.38;;
60464;SDS011;46314;52.392;9.758;2022-11-20T07:51:38;13.27;;;9.55;;
60464;SDS011;46314;52.392;9.758;2022-11-20T07:54:04;11.70;;;8.15;;
60464;SDS011;46314;52.392;9.758;2022-11-20T07:56:31;15.90;;;10.75;;
60464;SDS011;46314;52.392;9.758;2022-11-20T07:58:57;14.00;;;9.98;;
60464;SDS011;46314;52.392;9.758;2022-11-20T08:01:24;13.93;;;9.70;;
60464;SDS011;46314;52.392;9.758;2022-11-20T08:03:50;11.00;;;8.73;;
60464;SDS011;46314;52.392;9.758;2022-11-20T08:06:17;13.13;;;8.77;;
60464;SDS011;46314;52.392;9.758;2022-11-20T08:08:45;12.70;;;9.38;;
60464;SDS011;46314;52.392;9.758;2022-11-20T08:11:11;14.32;;;10.10;;
60464;SDS011;46314;52.392;9.758;2022-11-20T08:13:37;12.50;;;9.57;;
60464;SDS011;46314;52.392;9.758;2022-11-20T08:16:04;15.40;;;9.82;;
60464;SDS011;46314;52.392;9.758;2022-11-20T08:18:31;12.70;;;9.13;;
60464;SDS011;46314;52.392;9.758;2022-11-20T08:21:01;15.68;;;9.98;;
60464;SDS011;46314;52.392;9.758;2022-11-20T08:23:28;14.23;;;9.75;;
60464;SDS011;46314;52.392;9.758;2022-11-20T08:25:56;13.60;;;9.77;;
60464;SDS011;46314;52.392;9.758;2022-11-20T08:28:22;15.02;;;9.75;;
60464;SDS011;46314;52.392;9.758;2022-11-20T08:30:49;13.23;;;9.50;;
60464;SDS011;46314;52.392;9.758;2022-11-20T08:33:16;13.88;;;8.93;;
60464;SDS011;46314;52.392;9.758;2022-11-20T08:35:43;12.38;;;8.57;;
60464;SDS011;46314;52.392;9.758;2022-11-20T08:38:09;14.43;;;9.23;;
60464;SDS011;46314;52.392;9.758;2022-11-20T08:40:36;13.55;;;9.45;;
60464;SDS011;46314;52.392;9.758;2022-11-20T08:43:04;14.25;;;9.48;;
60464;SDS011;46314;52.392;9.758;2022-11-20T08:45:30;10.43;;;7.22;;
60464;SDS011;46314;52.392;9.758;2022-11-20T08:48:00;12.77;;;9.52;;
60464;SDS011;46314;52.392;9.758;2022-11-20T08:50:28;13.30;;;10.00;;
60464;SDS011;46314;52.392;9.758;2022-11-20T08:52:55;13.48;;;10.18;;
60464;SDS011;46314;52.392;9.758;2022-11-20T08:55:21;12.10;;;9.35;;
60464;SDS011;46314;52.392;9.758;2022-11-20T08:57:47;13.15;;;10.27;;
60464;SDS011;46314;52.392;9.758;2022-11-20T09:00:17;14.27;;;9.52;;
60464;SDS011;46314;52.392;9.758;2022-11-20T09:02:44;15.52;;;9.70;;
60464;SDS011;46314;52.392;9.758;2022-11-20T09:05:11;14.73;;;9.63;;
60464;SDS011;46314;52.392;9.758;2022-11-20T09:07:37;12.98;;;8.70;;
60464;SDS011;46314;52.392;9.758;2022-11-20T09:10:04;11.88;;;9.30;;
60464;SDS011;46314;52.392;9.758;2022-11-20T09:12:51;13.90;;;10.40;;
60464;SDS011;46314;52.392;9.758;2022-11-20T09:15:19;14.30;;;10.65;;
60464;SDS011;46314;52.392;9.758;2022-11-20T09:17:50;20.48;;;12.77;;
60464;SDS011;46314;52.392;9.758;2022-11-20T09:20:16;14.75;;;10.90;;
60464;SDS011;46314;52.392;9.758;2022-11-20T09:22:43;12.80;;;9.52;;
60464;SDS011;46314;52.392;9.758;2022-11-20T09:25:09;12.82;;;9.73;;
60464;SDS011;46314;52.392;9.758;2022-11-20T09:27:36;12.98;;;9.02;;
60464;SDS011;46314;52.392;9.758;2022-11-20T09:30:02;14.30;;;10.48;;
60464;SDS011;46314;52.392;9.758;2022-11-20T09:32:31;14.45;;;9.60;;
60464;SDS011;46314;52.392;9.758;2022-11-20T09:34:57;14.32;;;10.88;;
60464;SDS011;46314;52.392;9.758;2022-11-20T09:37:24;15.00;;;11.55;;
60464;SDS011;46314;52.392;9.758;2022-11-20T09:39:50;13.65;;;9.43;;
60464;SDS011;46314;52.392;9.758;2022-11-20T09:42:20;13.85;;;9.55;;
60464;SDS011;46314;52.392;9.758;2022-11-20T09:45:00;13.63;;;9.75;;
60464;SDS011;46314;52.392;9.758;2022-11-20T09:47:39;14.45;;;10.50;;
60464;SDS011;46314;52.392;9.758;2022-11-20T09:50:23;13.20;;;10.20;;
60464;SDS011;46314;52.392;9.758;2022-11-20T09:53:00;13.93;;;10.25;;
60464;SDS011;46314;52.392;9.758;2022-11-20T09:55:36;15.13;;;10.57;;
60464;SDS011;46314;52.392;9.758;2022-11-20T09:58:05;12.13;;;9.27;;
60464;SDS011;46314;52.392;9.758;2022-11-20T10:00:32;12.57;;;9.23;;
60464;SDS011;46314;52.392;9.758;2022-11-20T10:03:04;12.57;;;9.15;;
60464;SDS011;46314;52.392;9.758;2022-11-20T10:05:39;14.90;;;9.13;;
60464;SDS011;46314;52.392;9.758;2022-11-20T10:08:11;13.35;;;9.93;;
60464;SDS011;46314;52.392;9.758;2022-11-20T10:10:45;13.68;;;8.60;;
60464;SDS011;46314;52.392;9.758;2022-11-20T10:13:25;12.32;;;9.00;;
60464;SDS011;46314;52.392;9.758;2022-11-20T10:16:03;13.02;;;9.45;;
60464;SDS011;46314;52.392;9.758;2022-11-20T10:18:48;11.35;;;8.60;;
60464;SDS011;46314;52.392;9.758;2022-11-20T10:21:26;11.10;;;8.60;;
60464;SDS011;46314;52.392;9.758;2022-11-20T10:24:06;12.98;;;9.43;;
60464;SDS011;46314;52.392;9.758;2022-11-20T10:26:51;10.55;;;7.72;;
60464;SDS011;46314;52.392;9.758;2022-11-20T10:29:27;11.13;;;8.15;;
60464;SDS011;46314;52.392;9.758;2022-11-20T10:32:00;9.93;;;7.70;;
60464;SDS011;46314;52.392;9.758;2022-11-20T10:34:31;8.95;;;6.78;;
60464;SDS011;46314;52.392;9.758;2022-11-20T10:37:05;8.90;;;7.30;;
60464;SDS011;46314;52.392;9.758;2022-11-20T10:39:39;11.40;;;8.40;;
60464;SDS011;46314;52.392;9.758;2022-11-20T10:42:11;10.25;;;7.90;;
60464;SDS011;46314;52.392;9.758;2022-11-20T10:44:40;9.82;;;7.53;;
60464;SDS011;46314;52.392;9.758;2022-11-20T10:47:18;9.88;;;7.63;;
60464;SDS011;46314;52.392;9.758;2022-11-20T10:49:48;8.88;;;6.43;;
60464;SDS011;46314;52.392;9.758;2022-11-20T10:52:19;12.95;;;8.13;;
60464;SDS011;46314;52.392;9.758;2022-11-20T10:54:54;11.77;;;8.18;;
60464;SDS011;46314;52.392;9.758;2022-11-20T10:57:31;11.68;;;7.18;;
60464;SDS011;46314;52.392;9.758;2022-11-20T11:00:13;8.25;;;6.65;;
60464;SDS011;46314;52.392;9.758;2022-11-20T11:02:40;10.73;;;7.30;;
60464;SDS011;46314;52.392;9.758;2022-11-20T11:05:21;10.70;;;7.35;;
60464;SDS011;46314;52.392;9.758;2022-11-20T11:07:54;12.45;;;7.32;;
60464;SDS011;46314;52.392;9.758;2022-11-20T11:10:22;11.98;;;8.10;;
60464;SDS011;46314;52.392;9.758;2022-11-20T11:12:53;11.23;;;7.72;;
60464;SDS011;46314;52.392;9.758;2022-11-20T11:15:27;9.80;;;7.35;;
60464;SDS011;46314;52.392;9.758;2022-11-20T11:17:55;11.32;;;7.20;;
60464;SDS011;46314;52.392;9.758;2022-11-20T11:20:24;9.95;;;6.85;;
60464;SDS011;46314;52.392;9.758;2022-11-20T11:22:52;9.82;;;7.15;;
60464;SDS011;46314;52.392;9.758;2022-11-20T11:25:21;10.73;;;8.07;;
60464;SDS011;46314;52.392;9.758;2022-11-20T11:27:50;9.80;;;7.75;;
60464;SDS011;46314;52.392;9.758;2022-11-20T11:30:18;9.38;;;7.10;;
60464;SDS011;46314;52.392;9.758;2022-11-20T11:32:46;8.82;;;6.65;;
60464;SDS011;46314;52.392;9.758;2022-11-20T11:35:20;11.10;;;7.38;;
60464;SDS011;46314;52.392;9.758;2022-11-20T11:37:53;13.50;;;9.05;;
60464;SDS011;46314;52.392;9.758;2022-11-20T11:40:28;10.02;;;7.65;;
60464;SDS011;46314;52.392;9.758;2022-11-20T11:42:58;11.55;;;8.10;;
60464;SDS011;46314;52.392;9.758;2022-11-20T11:45:27;10.18;;;7.45;;
60464;SDS011;46314;52.392;9.758;2022-11-20T11:47:54;11.45;;;8.65;;
60464;SDS011;46314;52.392;9.758;2022-11-20T11:50:25;13.95;;;8.57;;
60464;SDS011;46314;52.392;9.758;2022-11-20T11:53:02;11.48;;;9.10;;
60464;SDS011;46314;52.392;9.758;2022-11-20T11:55:36;15.60;;;8.95;;
60464;SDS011;46314;52.392;9.758;2022-11-20T11:58:12;13.05;;;8.98;;
60464;SDS011;46314;52.392;9.758;2022-11-20T12:00:45;13.30;;;8.93;;
60464;SDS011;46314;52.392;9.758;2022-11-20T12:03:21;12.13;;;9.00;;
60464;SDS011;46314;52.392;9.758;2022-11-20T12:05:55;13.60;;;8.60;;
60464;SDS011;46314;52.392;9.758;2022-11-20T12:08:26;12.68;;;9.45;;
60464;SDS011;46314;52.392;9.758;2022-11-20T12:10:59;13.32;;;8.60;;
60464;SDS011;46314;52.392;9.758;2022-11-20T12:13:34;12.93;;;9.30;;
60464;SDS011;46314;52.392;9.758;2022-11-20T12:16:07;11.82;;;8.95;;
60464;SDS011;46314;52.392;9.758;2022-11-20T12:18:38;11.05;;;7.88;;
60464;SDS011;46314;52.392;9.758;2022-11-20T12:21:09;12.07;;;8.95;;
60464;SDS011;46314;52.392;9.758;2022-11-20T12:23:44;11.80;;;8.68;;
60464;SDS011;46314;52.392;9.758;2022-11-20T12:26:23;14.95;;;9.57;;
60464;SDS011;46314;52.392;9.758;2022-11-20T12:29:07;11.70;;;8.93;;
60464;SDS011;46314;52.392;9.758;2022-11-20T12:31:48;14.80;;;10.18;;
60464;SDS011;46314;52.392;9.758;2022-11-20T12:34:44;13.85;;;10.60;;
60464;SDS011;46314;52.392;9.758;2022-11-20T12:37:24;13.63;;;9.30;;
60464;SDS011;46314;52.392;9.758;2022-11-20T12:40:02;14.05;;;9.82;;
60464;SDS011;46314;52.392;9.758;2022-11-20T12:42:49;14.65;;;9.60;;
60464;SDS011;46314;52.392;9.758;2022-11-20T12:51:45;12.90;;;9.80;;
60464;SDS011;46314;52.392;9.758;2022-11-20T12:54:25;11.20;;;8.70;;
60464;SDS011;46314;52.392;9.758;2022-11-20T12:57:09;14.35;;;10.23;;
60464;SDS011;46314;52.392;9.758;2022-11-20T12:59:58;12.77;;;9.80;;
60464;SDS011;46314;52.392;9.758;2022-11-20T13:02:30;11.45;;;8.55;;
60464;SDS011;46314;52.392;9.758;2022-11-20T13:05:17;14.70;;;9.00;;
60464;SDS011;46314;52.392;9.758;2022-11-20T13:07:47;12.23;;;9.07;;
60464;SDS011;46314;52.392;9.758;2022-11-20T13:10:20;11.80;;;8.75;;
60464;SDS011;46314;52.392;9.758;2022-11-20T13:12:54;10.43;;;7.78;;
60464;SDS011;46314;52.392;9.758;2022-11-20T13:15:34;9.13;;;7.15;;
60464;SDS011;46314;52.392;9.758;2022-11-20T13:18:07;14.82;;;9.73;;
60464;SDS011;46314;52.392;9.758;2022-11-20T13:20:36;14.45;;;9.10;;
60464;SDS011;46314;52.392;9.758;2022-11-20T13:23:08;13.38;;;9.02;;
60464;SDS011;46314;52.392;9.758;2022-11-20T13:25:36;16.27;;;10.57;;
60464;SDS011;46314;52.392;9.758;2022-11-20T13:28:05;15.40;;;10.18;;
60464;SDS011;46314;52.392;9.758;2022-11-20T13:30:55;14.82;;;9.68;;
60464;SDS011;46314;52.392;9.758;2022-11-20T13:33:23;12.85;;;9.98;;
60464;SDS011;46314;52.392;9.758;2022-11-20T13:35:55;12.30;;;10.10;;
60464;SDS011;46314;52.392;9.758;2022-11-20T13:38:22;14.10;;;9.38;;
60464;SDS011;46314;52.392;9.758;2022-11-20T13:40:54;13.30;;;8.88;;
60464;SDS011;46314;52.392;9.758;2022-11-20T13:43:23;9.57;;;7.13;;
60464;SDS011;46314;52.392;9.758;2022-11-20T13:45:55;15.00;;;11.60;;
60464;SDS011;46314;52.392;9.758;2022-11-20T13:48:24;13.30;;;9.38;;
60464;SDS011;46314;52.392;9.758;2022-11-20T13:50:56;13.48;;;9.80;;
60464;SDS011;46314;52.392;9.758;2022-11-20T13:53:33;13.60;;;9.52;;
60464;SDS011;46314;52.392;9.758;2022-11-20T13:56:17;11.93;;;8.57;;
60464;SDS011;46314;52.392;9.758;2022-11-20T13:58:53;16.52;;;10.85;;
60464;SDS011;46314;52.392;9.758;2022-11-20T14:01:30;13.95;;;10.38;;
60464;SDS011;46314;52.392;9.758;2022-11-20T14:03:58;12.98;;;10.27;;
60464;SDS011;46314;52.392;9.758;2022-11-20T14:06:32;13.10;;;9.77;;
60464;SDS011;46314;52.392;9.758;2022-11-20T14:09:00;15.65;;;10.00;;
60464;SDS011;46314;52.392;9.758;2022-11-20T14:11:28;13.85;;;9.40;;
60464;SDS011;46314;52.392;9.758;2022-11-20T14:13:57;17.23;;;10.25;;
60464;SDS011;46314;52.392;9.758;2022-11-20T14:16:26;15.77;;;12.05;;
60464;SDS011;46314;52.392;9.758;2022-11-20T14:18:54;16.60;;;11.43;;
60464;SDS011;46314;52.392;9.758;2022-11-20T14:21:23;13.73;;;10.93;;
60464;SDS011;46314;52.392;9.758;2022-11-20T14:23:52;13.52;;;10.30;;
60464;SDS011;46314;52.392;9.758;2022-11-20T14:26:19;15.77;;;11.57;;
60464;SDS011;46314;52.392;9.758;2022-11-20T14:28:49;15.32;;;11.43;;
60464;SDS011;46314;52.392;9.758;2022-11-20T14:31:18;15.65;;;12.07;;
60464;SDS011;46314;52.392;9.758;2022-11-20T14:33:49;14.45;;;10.80;;
60464;SDS011;46314;52.392;9.758;2022-11-20T14:36:16;17.38;;;11.35;;
60464;SDS011;46314;52.392;9.758;2022-11-20T14:38:45;20.00;;;12.77;;
60464;SDS011;46314;52.392;9.758;2022-11-20T14:41:16;15.63;;;12.07;;
60464;SDS011;46314;52.392;9.758;2022-11-20T14:43:45;17.30;;;11.93;;
60464;SDS011;46314;52.392;9.758;2022-11-20T14:46:14;18.30;;;11.85;;
60464;SDS011;46314;52.392;9.758;2022-11-20T14:48:44;17.80;;;11.30;;
60464;SDS011;46314;52.392;9.758;2022-11-20T14:51:22;16.83;;;12.40;;